< < Back
Terminal Aerodrome Forecast


Current Version              Previous Versions:   1  2  3  4  5  6  7  8  9  

Terminal Aerodrome Forecast

288
FTUS42 KTAE 272331
TAFABY
TAF
KABY 272331Z 2800/2824 35004KT P6SM SCT250
     FM281100 07003KT 5SM BR SCT005 BKN015
     FM281400 10007KT P6SM SCT040=

Latest METAR

806
SAUS70 KWBC 280900 RRJ
MTRABY
METAR KABY 280853Z 04003KT 10SM CLR 23/21 A2999 RMK AO2 SLP153 T02280206
58005


USA.gov is the U.S. government's official web portal to all federal, state and local government web resources and services.